Time;durP1;ratioP1;P1;durP2;ratioP2;P2;SDS_P1;SDS_P2;PMS_P1;PMS_P2;Temp;Humidity;BMP_temperature;BMP_pressure;BME280_temperature;BME280_humidity;BME280_pressure;Samples;Min_cycle;Max_cycle;Signal;HPM_P1;HPM_P2
2022/06/22 00:00:28;;;;;;;18.45;6.10;;;;;;;;;;5089622;28;20024;-79
2022/06/22 00:02:55;;;;;;;21.55;6.20;;;;;;;;;;5089663;28;20090;-81
2022/06/22 00:05:33;;;;;;;20.00;6.28;;;;;;;;;;5089461;28;20387;-77
2022/06/22 00:08:02;;;;;;;22.08;6.10;;;;;;;;;;5089696;28;20024;-81
2022/06/22 00:10:51;;;;;;;17.50;5.55;;;;;;;;;;5089599;28;20103;-77
2022/06/22 00:13:21;;;;;;;24.13;6.28;;;;;;;;;;5089443;28;20115;-81
2022/06/22 00:15:48;;;;;;;22.90;6.10;;;;;;;;;;5089751;28;20033;-80
2022/06/22 00:18:35;;;;;;;22.73;6.57;;;;;;;;;;5089751;28;20028;-79
2022/06/22 00:21:15;;;;;;;18.20;6.10;;;;;;;;;;5089342;28;20619;-79
2022/06/22 00:23:43;;;;;;;18.90;6.57;;;;;;;;;;5089932;28;20098;-80
2022/06/22 00:26:26;;;;;;;18.00;6.20;;;;;;;;;;5089485;28;20085;-80
2022/06/22 00:29:09;;;;;;;20.13;6.10;;;;;;;;;;5089711;28;20032;-81
2022/06/22 00:31:49;;;;;;;21.92;6.07;;;;;;;;;;5089627;28;20488;-81
2022/06/22 00:34:16;;;;;;;;;;;;;;;;;;5089742;28;20131;-78
2022/06/22 00:37:00;;;;;;;20.35;5.93;;;;;;;;;;5089014;28;19911;-82
2022/06/22 00:39:30;;;;;;;17.08;5.63;;;;;;;;;;5089548;28;20119;-82
2022/06/22 00:42:14;;;;;;;20.35;5.30;;;;;;;;;;5090436;28;20028;-81
2022/06/22 00:44:43;;;;;;;19.05;5.90;;;;;;;;;;5092962;28;20737;-74
2022/06/22 00:47:34;;;;;;;16.87;5.77;;;;;;;;;;5093587;28;20077;-82
2022/06/22 00:50:18;;;;;;;21.90;6.13;;;;;;;;;;5093269;28;20691;-79
2022/06/22 00:52:55;;;;;;;20.73;6.93;;;;;;;;;;5092557;28;20074;-81
2022/06/22 00:55:35;;;;;;;19.05;6.88;;;;;;;;;;5092992;28;20028;-82
2022/06/22 00:58:02;;;;;;;18.73;6.63;;;;;;;;;;5092919;28;20067;-81
2022/06/22 01:00:31;;;;;;;22.50;7.50;;;;;;;;;;5092979;28;20028;-82
2022/06/22 01:03:12;;;;;;;19.50;7.25;;;;;;;;;;5092920;28;20480;-81
2022/06/22 01:06:02;;;;;;;22.10;7.75;;;;;;;;;;5092436;28;20514;-81
2022/06/22 01:08:56;;;;;;;20.05;7.93;;;;;;;;;;5092847;28;20028;-79
2022/06/22 01:14:44;;;;;;;25.20;8.20;;;;;;;;;;5092372;28;20030;-81
2022/06/22 01:17:20;;;;;;;22.25;8.80;;;;;;;;;;5092376;28;20017;-81
2022/06/22 01:20:14;;;;;;;20.95;8.05;;;;;;;;;;5091443;28;20503;-82
2022/06/22 01:23:01;;;;;;;24.92;8.23;;;;;;;;;;5087573;28;20495;-81
2022/06/22 01:25:44;;;;;;;22.05;8.63;;;;;;;;;;5092279;28;20024;-82
2022/06/22 01:28:11;;;;;;;24.42;8.40;;;;;;;;;;5092643;28;20471;-81
2022/06/22 01:30:41;;;;;;;19.38;8.05;;;;;;;;;;5092297;28;20055;-82
2022/06/22 01:33:12;;;;;;;18.90;7.90;;;;;;;;;;5092097;28;20035;-81
2022/06/22 01:35:38;;;;;;;23.70;8.45;;;;;;;;;;5091752;28;20024;-80
2022/06/22 01:38:13;;;;;;;22.17;8.02;;;;;;;;;;5092438;28;20065;-80
2022/06/22 01:40:45;;;;;;;26.42;7.75;;;;;;;;;;5092406;28;20016;-79
2022/06/22 01:43:29;;;;;;;17.25;6.70;;;;;;;;;;5092286;28;20024;-81
2022/06/22 01:46:10;;;;;;;15.60;7.68;;;;;;;;;;5092358;28;20078;-80
2022/06/22 01:48:49;;;;;;;20.85;7.53;;;;;;;;;;5092297;28;20070;-81
2022/06/22 01:51:46;;;;;;;19.70;7.78;;;;;;;;;;5091602;28;20024;-81
2022/06/22 01:54:31;;;;;;;24.10;8.02;;;;;;;;;;5089891;28;20502;-80
2022/06/22 01:57:24;;;;;;;20.23;8.23;;;;;;;;;;5091810;28;20038;-81
2022/06/22 01:59:58;;;;;;;19.83;7.40;;;;;;;;;;5091250;28;20036;-82
2022/06/22 02:02:39;;;;;;;19.52;7.97;;;;;;;;;;5091815;28;20028;-80
2022/06/22 02:05:29;;;;;;;18.20;7.47;;;;;;;;;;5091882;28;20506;-82
2022/06/22 02:08:02;;;;;;;19.05;7.53;;;;;;;;;;5091606;28;20674;-82
2022/06/22 02:10:59;;;;;;;17.23;7.80;;;;;;;;;;5091635;28;20111;-80
2022/06/22 02:13:44;;;;;;;20.10;8.00;;;;;;;;;;5091285;28;20399;-79
2022/06/22 02:16:25;;;;;;;13.85;7.07;;;;;;;;;;5091036;28;20048;-81
2022/06/22 02:18:56;;;;;;;19.15;7.10;;;;;;;;;;5091602;28;20395;-78
2022/06/22 02:21:25;;;;;;;20.90;7.95;;;;;;;;;;5090831;28;20418;-77
2022/06/22 02:24:00;;;;;;;16.55;7.60;;;;;;;;;;5091344;28;20024;-82
2022/06/22 02:26:32;;;;;;;17.10;7.65;;;;;;;;;;5091405;28;20035;-80
2022/06/22 02:28:58;;;;;;;16.95;7.28;;;;;;;;;;5091478;28;20024;-77
2022/06/22 02:31:24;;;;;;;19.35;6.97;;;;;;;;;;5090875;28;20028;-77
2022/06/22 02:33:53;;;;;;;19.38;7.22;;;;;;;;;;5090653;28;20047;-76
2022/06/22 02:36:20;;;;;;;19.25;7.47;;;;;;;;;;5090691;28;20029;-81
2022/06/22 02:38:48;;;;;;;14.88;7.05;;;;;;;;;;5091107;28;20020;-81
2022/06/22 02:46:46;;;;;;;14.68;7.15;;;;;;;;;;5091110;28;20035;-82
2022/06/22 02:49:41;;;;;;;16.02;7.30;;;;;;;;;;5090660;28;20056;-81
2022/06/22 02:52:10;;;;;;;17.85;7.72;;;;;;;;;;5087147;28;20040;-78
2022/06/22 02:54:41;;;;;;;15.45;7.25;;;;;;;;;;5090599;28;20030;-82
2022/06/22 02:57:47;;;;;;;16.85;7.30;;;;;;;;;;5090603;28;20020;-82
2022/06/22 03:00:15;;;;;;;17.80;7.15;;;;;;;;;;5090956;28;20032;-80
2022/06/22 03:02:41;;;;;;;14.90;6.90;;;;;;;;;;5090542;28;20032;-81
2022/06/22 03:05:08;;;;;;;19.77;7.07;;;;;;;;;;5089934;28;20399;-75
2022/06/22 03:07:39;;;;;;;18.30;7.00;;;;;;;;;;5090074;28;20494;-82
2022/06/22 03:10:06;;;;;;;19.45;6.72;;;;;;;;;;5090644;28;20036;-81
2022/06/22 03:12:32;;;;;;;18.73;6.20;;;;;;;;;;5090456;28;20024;-81
2022/06/22 03:15:02;;;;;;;22.17;6.47;;;;;;;;;;5090243;28;20045;-80
2022/06/22 03:17:34;;;;;;;20.73;5.75;;;;;;;;;;5090274;28;20030;-81
2022/06/22 03:20:09;;;;;;;15.75;4.97;;;;;;;;;;5090645;28;20074;-79
2022/06/22 03:22:39;;;;;;;23.17;4.38;;;;;;;;;;5089958;28;20020;-80
2022/06/22 03:25:31;;;;;;;12.02;4.00;;;;;;;;;;5090391;28;20130;-80
2022/06/22 03:28:04;;;;;;;13.73;3.90;;;;;;;;;;5090270;28;20035;-82
2022/06/22 03:30:41;;;;;;;18.65;3.67;;;;;;;;;;5090163;28;20028;-80
2022/06/22 03:33:10;;;;;;;15.77;3.85;;;;;;;;;;5089770;28;20353;-82
2022/06/22 03:35:42;;;;;;;11.77;3.50;;;;;;;;;;5090047;28;20085;-81
2022/06/22 03:38:15;;;;;;;15.00;3.50;;;;;;;;;;5090139;28;20537;-82
2022/06/22 03:40:46;;;;;;;10.75;3.45;;;;;;;;;;5090235;28;20035;-82
2022/06/22 03:43:19;;;;;;;18.10;3.40;;;;;;;;;;5089977;28;20047;-81
2022/06/22 03:45:49;;;;;;;10.25;3.50;;;;;;;;;;5090234;28;20024;-82
2022/06/22 03:48:21;;;;;;;11.55;3.25;;;;;;;;;;5089795;28;20036;-82
2022/06/22 03:50:52;;;;;;;13.20;3.58;;;;;;;;;;5089637;28;20115;-81
2022/06/22 03:53:20;;;;;;;;;;;;;;;;;;5089946;28;20495;-82
2022/06/22 03:55:50;;;;;;;13.55;3.40;;;;;;;;;;5090111;28;19916;-81
2022/06/22 03:58:16;;;;;;;9.45;3.55;;;;;;;;;;5089857;28;20491;-82
2022/06/22 04:00:44;;;;;;;12.88;3.63;;;;;;;;;;5089989;28;20106;-80
2022/06/22 04:03:11;;;;;;;17.75;3.92;;;;;;;;;;5089873;28;20662;-81
2022/06/22 04:05:44;;;;;;;11.65;4.00;;;;;;;;;;5089160;28;20024;-81
2022/06/22 04:08:16;;;;;;;10.82;4.30;;;;;;;;;;5089486;28;20028;-81
2022/06/22 04:10:50;;;;;;;12.02;4.13;;;;;;;;;;5089823;28;20020;-80
2022/06/22 04:13:21;;;;;;;10.68;4.25;;;;;;;;;;5089468;28;20459;-80
2022/06/22 04:15:54;;;;;;;16.00;4.30;;;;;;;;;;5090211;28;20032;-83
2022/06/22 04:18:38;;;;;;;9.45;4.10;;;;;;;;;;5093865;28;20021;-80
2022/06/22 04:21:07;;;;;;;13.90;3.97;;;;;;;;;;5093679;28;20486;-81
2022/06/22 04:23:50;;;;;;;12.23;3.90;;;;;;;;;;5093503;28;20036;-82
2022/06/22 04:26:44;;;;;;;11.68;4.22;;;;;;;;;;5093953;28;20077;-80
2022/06/22 04:29:27;;;;;;;12.73;4.18;;;;;;;;;;5053535;28;20085;-81
2022/06/22 04:32:06;;;;;;;14.00;4.47;;;;;;;;;;5093457;28;20031;-81
2022/06/22 04:34:50;;;;;;;10.13;4.30;;;;;;;;;;5093142;28;20028;-81
2022/06/22 04:37:41;;;;;;;13.48;4.53;;;;;;;;;;5093158;28;20034;-82
2022/06/22 04:40:28;;;;;;;12.57;4.32;;;;;;;;;;5093374;28;20023;-81
2022/06/22 04:42:59;;;;;;;13.25;4.80;;;;;;;;;;5093177;28;20024;-82
2022/06/22 04:45:36;;;;;;;12.30;4.78;;;;;;;;;;5093056;28;20020;-81
2022/06/22 04:48:09;;;;;;;11.88;4.30;;;;;;;;;;5092913;28;20127;-81
2022/06/22 04:50:37;;;;;;;10.20;4.78;;;;;;;;;;5092877;28;20499;-80
2022/06/22 04:53:03;;;;;;;10.63;4.82;;;;;;;;;;5092916;28;20111;-81
2022/06/22 04:55:38;;;;;;;11.77;4.60;;;;;;;;;;5092863;28;20036;-81
2022/06/22 04:58:15;;;;;;;11.63;4.82;;;;;;;;;;5093018;28;20027;-82
2022/06/22 05:00:45;;;;;;;13.32;5.25;;;;;;;;;;5093235;28;20074;-81
2022/06/22 05:03:13;;;;;;;13.60;5.60;;;;;;;;;;5092843;28;20024;-83
2022/06/22 05:05:39;;;;;;;12.75;5.30;;;;;;;;;;5092212;28;20032;-82
2022/06/22 05:08:34;;;;;;;12.65;5.80;;;;;;;;;;5092366;28;20039;-82
2022/06/22 05:11:15;;;;;;;14.40;6.05;;;;;;;;;;5076291;28;20036;-81
2022/06/22 05:13:45;;;;;;;14.77;5.97;;;;;;;;;;5092770;28;20032;-82
2022/06/22 05:16:16;;;;;;;11.10;5.82;;;;;;;;;;5092738;28;20161;-82
2022/06/22 05:18:45;;;;;;;14.02;6.28;;;;;;;;;;5092764;28;20514;-82
2022/06/22 05:21:27;;;;;;;16.05;6.32;;;;;;;;;;5092475;28;20028;-81
2022/06/22 05:23:57;;;;;;;17.55;6.75;;;;;;;;;;5092216;28;20388;-82
2022/06/22 05:26:25;;;;;;;14.05;6.45;;;;;;;;;;5092498;28;20380;-81
2022/06/22 05:29:21;;;;;;;16.10;6.50;;;;;;;;;;5091587;28;20035;-80
2022/06/22 05:31:54;;;;;;;17.40;6.28;;;;;;;;;;5092535;28;20038;-81
2022/06/22 05:34:26;;;;;;;12.90;6.50;;;;;;;;;;5092148;28;20424;-81
2022/06/22 05:37:08;;;;;;;13.23;6.43;;;;;;;;;;5092297;28;20024;-80
2022/06/22 05:39:35;;;;;;;20.58;6.95;;;;;;;;;;5092149;28;20020;-81
2022/06/22 05:42:02;;;;;;;15.00;6.22;;;;;;;;;;5092383;28;20031;-83
2022/06/22 05:44:28;;;;;;;15.95;6.95;;;;;;;;;;5091817;28;20708;-75
2022/06/22 05:46:59;;;;;;;12.15;6.15;;;;;;;;;;5092117;28;20103;-82
2022/06/22 05:49:46;;;;;;;16.05;7.10;;;;;;;;;;5091935;28;20044;-76
2022/06/22 05:52:17;;;;;;;17.00;7.10;;;;;;;;;;5091775;28;20035;-81
2022/06/22 05:54:52;;;;;;;16.23;6.85;;;;;;;;;;5091867;28;20075;-79
2022/06/22 05:57:26;;;;;;;15.10;6.93;;;;;;;;;;5092125;28;20089;-80
2022/06/22 06:00:00;;;;;;;17.52;7.57;;;;;;;;;;5091718;28;20537;-72
2022/06/22 06:02:38;;;;;;;13.32;7.00;;;;;;;;;;5091855;28;20511;-74
2022/06/22 06:05:12;;;;;;;14.35;7.50;;;;;;;;;;5091110;28;20055;-77
2022/06/22 06:07:57;;;;;;;17.60;8.02;;;;;;;;;;5091417;28;20024;-75
2022/06/22 06:10:28;;;;;;;15.57;6.88;;;;;;;;;;5091361;28;20020;-80
2022/06/22 06:13:00;;;;;;;20.05;7.30;;;;;;;;;;5091797;28;20069;-81
2022/06/22 06:15:25;;;;;;;17.33;7.85;;;;;;;;;;5091245;28;20032;-81
2022/06/22 06:17:57;;;;;;;14.45;7.18;;;;;;;;;;5091620;28;20111;-80
2022/06/22 06:20:39;;;;;;;15.20;7.43;;;;;;;;;;5091436;28;20043;-80
2022/06/22 06:23:14;;;;;;;12.93;7.35;;;;;;;;;;5091115;28;20024;-81
2022/06/22 06:28:35;;;;;;;15.77;7.30;;;;;;;;;;5091479;28;20055;-81
2022/06/22 06:31:07;;;;;;;14.10;7.28;;;;;;;;;;5073103;28;20043;-77
2022/06/22 06:33:38;;;;;;;15.18;7.78;;;;;;;;;;5091047;28;20157;-81
2022/06/22 06:36:28;;;;;;;16.17;7.45;;;;;;;;;;5090783;28;20020;-81
2022/06/22 06:39:05;;;;;;;18.75;7.88;;;;;;;;;;5090481;28;20028;-82
2022/06/22 06:41:38;;;;;;;15.38;7.65;;;;;;;;;;5090463;28;20506;-81
2022/06/22 06:44:10;;;;;;;13.32;7.10;;;;;;;;;;5090931;28;20024;-79
2022/06/22 06:46:40;;;;;;;14.30;7.22;;;;;;;;;;5091066;28;20095;-81
2022/06/22 06:49:19;;;;;;;13.40;6.88;;;;;;;;;;5090689;28;20036;-79
2022/06/22 06:51:57;;;;;;;13.32;7.40;;;;;;;;;;5090747;28;20035;-76
2022/06/22 06:54:31;;;;;;;14.05;6.68;;;;;;;;;;5090722;28;20027;-82
2022/06/22 06:57:02;;;;;;;14.88;7.15;;;;;;;;;;5091270;28;20020;-80
2022/06/22 06:59:29;;;;;;;15.35;7.32;;;;;;;;;;5091006;28;20024;-80
2022/06/22 07:01:55;;;;;;;14.45;7.68;;;;;;;;;;5073308;28;20068;-83
2022/06/22 07:04:32;;;;;;;10.70;7.35;;;;;;;;;;5091139;28;20492;-80
2022/06/22 07:07:07;;;;;;;13.02;7.30;;;;;;;;;;5091385;28;20491;-80
2022/06/22 07:09:38;;;;;;;12.23;7.20;;;;;;;;;;5091342;28;20101;-81
2022/06/22 07:12:10;;;;;;;10.95;6.85;;;;;;;;;;5091403;28;20483;-81
2022/06/22 07:14:39;;;;;;;10.75;7.72;;;;;;;;;;5090808;28;20028;-81
2022/06/22 07:17:13;;;;;;;12.27;7.37;;;;;;;;;;5100615;28;20026;-79
2022/06/22 07:19:45;;;;;;;13.82;7.15;;;;;;;;;;5102109;28;20023;-82
2022/06/22 07:22:31;;;;;;;12.75;7.35;;;;;;;;;;5099579;28;20056;-80
2022/06/22 07:25:19;;;;;;;12.95;7.45;;;;;;;;;;5101242;28;20113;-74
2022/06/22 07:27:53;;;;;;;13.70;7.43;;;;;;;;;;5100994;28;20032;-82
2022/06/22 07:30:40;;;;;;;14.65;7.13;;;;;;;;;;5100204;28;20033;-80
2022/06/22 07:33:37;;;;;;;15.25;7.20;;;;;;;;;;5090488;28;20495;-73
2022/06/22 07:36:16;;;;;;;12.73;6.93;;;;;;;;;;5089511;28;20036;-81
2022/06/22 07:38:41;;;;;;;13.02;6.82;;;;;;;;;;5090306;28;20027;-78
2022/06/22 07:41:18;;;;;;;12.85;6.85;;;;;;;;;;5071695;28;20493;-79
2022/06/22 07:44:04;;;;;;;13.63;6.40;;;;;;;;;;5090128;28;20047;-79
2022/06/22 07:47:05;;;;;;;11.32;6.25;;;;;;;;;;5090075;28;20034;-80
2022/06/22 07:49:39;;;;;;;12.90;5.85;;;;;;;;;;5090012;28;20143;-75
2022/06/22 07:52:15;;;;;;;10.38;6.05;;;;;;;;;;5089528;28;20035;-81
2022/06/22 07:54:43;;;;;;;12.70;5.90;;;;;;;;;;5089855;28;20027;-80
2022/06/22 07:57:28;;;;;;;12.13;5.78;;;;;;;;;;5089760;28;20024;-80
2022/06/22 07:59:56;;;;;;;12.68;5.45;;;;;;;;;;5090050;28;20040;-81
2022/06/22 08:02:28;;;;;;;12.48;5.38;;;;;;;;;;5090054;28;20063;-80
2022/06/22 08:04:59;;;;;;;9.90;5.68;;;;;;;;;;5090138;28;20043;-80
2022/06/22 08:07:37;;;;;;;;;;;;;;;;;;5090126;28;20032;-78
2022/06/22 08:10:16;;;;;;;9.25;5.30;;;;;;;;;;5089840;28;19923;-80
2022/06/22 08:13:03;;;;;;;12.30;6.00;;;;;;;;;;5090066;28;20024;-80
2022/06/22 08:15:33;;;;;;;7.88;5.00;;;;;;;;;;5089533;28;20028;-79
2022/06/22 08:18:00;;;;;;;8.95;4.68;;;;;;;;;;5089814;28;20024;-79
2022/06/22 08:20:41;;;;;;;9.25;5.05;;;;;;;;;;5089438;28;20441;-80
2022/06/22 08:23:12;;;;;;;7.95;4.30;;;;;;;;;;5072160;28;20472;-80
2022/06/22 08:25:38;;;;;;;9.27;4.28;;;;;;;;;;5089796;28;20024;-81
2022/06/22 08:28:04;;;;;;;7.78;4.00;;;;;;;;;;5089339;28;20034;-80
2022/06/22 08:30:31;;;;;;;6.88;4.00;;;;;;;;;;5089289;28;20024;-81
2022/06/22 08:33:04;;;;;;;8.35;4.20;;;;;;;;;;5089655;28;20480;-81
2022/06/22 08:35:58;;;;;;;9.27;4.03;;;;;;;;;;5088650;28;20024;-81
2022/06/22 08:38:36;;;;;;;9.77;4.20;;;;;;;;;;5075754;28;20032;-82
2022/06/22 08:41:26;;;;;;;9.88;4.28;;;;;;;;;;5089302;28;20106;-81
2022/06/22 08:44:19;;;;;;;7.22;3.85;;;;;;;;;;5089557;28;20433;-82
2022/06/22 08:47:19;;;;;;;6.97;3.40;;;;;;;;;;5088931;28;20036;-81
2022/06/22 08:49:44;;;;;;;;;;;;;;;;;;5073205;28;20512;-81
2022/06/22 08:52:13;;;;;;;10.20;3.03;;;;;;;;;;5109186;28;19923;-82
2022/06/22 08:55:17;;;;;;;6.88;2.83;;;;;;;;;;5109411;28;20281;-79
2022/06/22 08:58:01;;;;;;;8.98;2.70;;;;;;;;;;5109507;28;20051;-78
2022/06/22 09:00:51;;;;;;;6.15;2.25;;;;;;;;;;5109508;28;20036;-76
2022/06/22 09:03:47;;;;;;;4.83;2.60;;;;;;;;;;5110813;28;20032;-80
2022/06/22 09:06:24;;;;;;;4.72;2.30;;;;;;;;;;5111136;28;20036;-80
2022/06/22 09:09:13;;;;;;;5.43;2.30;;;;;;;;;;5113249;28;20030;-80
2022/06/22 09:12:06;;;;;;;5.32;2.60;;;;;;;;;;5112650;28;20455;-80
2022/06/22 09:14:37;;;;;;;5.43;2.63;;;;;;;;;;5113114;28;20125;-73
2022/06/22 09:17:40;;;;;;;7.43;2.60;;;;;;;;;;5112384;28;20019;-80
2022/06/22 09:20:27;;;;;;;10.52;2.63;;;;;;;;;;5112712;28;20031;-79
2022/06/22 09:22:52;;;;;;;7.32;2.38;;;;;;;;;;5112949;28;20027;-78
2022/06/22 09:25:26;;;;;;;7.43;2.60;;;;;;;;;;5112686;28;20016;-80
2022/06/22 09:28:01;;;;;;;7.30;2.50;;;;;;;;;;5112776;28;20147;-79
2022/06/22 09:30:32;;;;;;;5.63;2.45;;;;;;;;;;5112541;28;20035;-82
2022/06/22 09:33:35;;;;;;;6.93;2.47;;;;;;;;;;5112487;28;20066;-79
2022/06/22 09:36:34;;;;;;;4.63;2.53;;;;;;;;;;5112005;28;20032;-82
2022/06/22 09:39:31;;;;;;;6.18;2.65;;;;;;;;;;5112742;28;20019;-81
2022/06/22 09:42:24;;;;;;;5.75;2.60;;;;;;;;;;5112422;28;20054;-79
2022/06/22 09:44:55;;;;;;;4.68;2.30;;;;;;;;;;5112588;28;20023;-74
2022/06/22 09:47:42;;;;;;;5.18;2.50;;;;;;;;;;5112255;28;20024;-80
2022/06/22 09:50:45;;;;;;;4.18;2.58;;;;;;;;;;5112487;28;20044;-80
2022/06/22 09:53:25;;;;;;;7.00;2.78;;;;;;;;;;5112123;28;20119;-76
2022/06/22 09:56:20;;;;;;;4.80;2.35;;;;;;;;;;5112246;28;20110;-80
2022/06/22 09:59:20;;;;;;;5.88;2.40;;;;;;;;;;5112318;28;20149;-81
2022/06/22 10:02:17;;;;;;;4.93;2.50;;;;;;;;;;5111922;28;20487;-80
2022/06/22 10:05:01;;;;;;;6.68;2.30;;;;;;;;;;5078657;28;20040;-82
2022/06/22 10:07:44;;;;;;;5.80;2.70;;;;;;;;;;5111203;28;20027;-81
2022/06/22 10:10:15;;;;;;;6.55;2.28;;;;;;;;;;5111821;28;20034;-73
2022/06/22 10:12:50;;;;;;;6.15;2.42;;;;;;;;;;5111870;28;20100;-78
2022/06/22 10:15:43;;;;;;;5.50;2.30;;;;;;;;;;5111658;28;20038;-81
2022/06/22 10:18:24;;;;;;;5.22;2.45;;;;;;;;;;5111513;28;20028;-81
2022/06/22 10:21:08;;;;;;;5.20;2.55;;;;;;;;;;5111804;28;20063;-80
2022/06/22 10:24:00;;;;;;;5.10;2.30;;;;;;;;;;5111608;28;20027;-81
2022/06/22 10:26:53;;;;;;;5.55;2.42;;;;;;;;;;5111220;28;20136;-80
2022/06/22 10:29:43;;;;;;;6.93;2.50;;;;;;;;;;5111791;28;20020;-81
2022/06/22 10:32:21;;;;;;;;;;;;;;;;;;5110498;28;20055;-81
2022/06/22 10:35:01;;;;;;;5.60;2.40;;;;;;;;;;5111573;28;19916;-81
2022/06/22 10:37:59;;;;;;;6.22;2.40;;;;;;;;;;5110541;28;20099;-76
2022/06/22 10:46:22;;;;;;;6.10;2.47;;;;;;;;;;5090845;28;20050;-81
2022/06/22 10:49:01;;;;;;;7.07;2.65;;;;;;;;;;5100638;27;20096;-81
2022/06/22 10:51:35;;;;;;;3.95;2.25;;;;;;;;;;5090690;28;20115;-74
2022/06/22 10:54:35;;;;;;;5.53;2.30;;;;;;;;;;5072490;28;20044;-81
2022/06/22 10:57:24;;;;;;;5.68;2.38;;;;;;;;;;5090331;28;20063;-80
2022/06/22 11:00:11;;;;;;;5.10;2.40;;;;;;;;;;5090955;28;20028;-82
2022/06/22 11:02:55;;;;;;;7.22;2.53;;;;;;;;;;5090329;28;20020;-82
2022/06/22 11:05:39;;;;;;;6.43;2.42;;;;;;;;;;5090542;28;20438;-81
2022/06/22 11:08:41;;;;;;;4.47;2.45;;;;;;;;;;5089827;28;20100;-81
2022/06/22 11:11:10;;;;;;;5.55;2.80;;;;;;;;;;5090559;28;20032;-80
2022/06/22 11:13:47;;;;;;;8.05;2.67;;;;;;;;;;5090195;28;20411;-81
2022/06/22 11:16:25;;;;;;;7.15;2.50;;;;;;;;;;5072412;28;20053;-81
2022/06/22 11:19:17;;;;;;;4.55;2.40;;;;;;;;;;5090129;28;20028;-82
2022/06/22 11:21:48;;;;;;;6.20;2.70;;;;;;;;;;5089860;28;20027;-82
2022/06/22 11:24:35;;;;;;;6.38;2.50;;;;;;;;;;5090239;28;20036;-82
2022/06/22 11:33:40;;;;;;;5.53;2.40;;;;;;;;;;5090321;28;20506;-78
2022/06/22 11:36:08;;;;;;;3.17;2.28;;;;;;;;;;5089776;28;20043;-81
2022/06/22 11:38:52;;;;;;;8.23;2.55;;;;;;;;;;5089602;28;20157;-80
2022/06/22 11:41:23;;;;;;;6.10;2.50;;;;;;;;;;5090023;28;20161;-79
2022/06/22 11:44:40;;;;;;;4.63;2.22;;;;;;;;;;5089579;28;20032;-80
2022/06/22 11:47:27;;;;;;;6.03;2.60;;;;;;;;;;5033382;28;20046;-73
2022/06/22 11:49:59;;;;;;;6.95;2.40;;;;;;;;;;5089737;28;20036;-79
2022/06/22 11:52:52;;;;;;;7.00;2.40;;;;;;;;;;5089413;28;20039;-78
2022/06/22 11:55:27;;;;;;;6.18;2.45;;;;;;;;;;5089741;28;20039;-75
2022/06/22 11:58:11;;;;;;;6.28;2.65;;;;;;;;;;5089612;28;20089;-78
2022/06/22 12:01:15;;;;;;;4.68;2.28;;;;;;;;;;5071768;28;20028;-81
2022/06/22 12:04:09;;;;;;;7.07;2.50;;;;;;;;;;5089419;28;20043;-76
2022/06/22 12:07:12;;;;;;;9.45;2.58;;;;;;;;;;5089271;28;20383;-75
2022/06/22 12:10:10;;;;;;;3.83;2.00;;;;;;;;;;5089739;28;20032;-80
2022/06/22 12:12:51;;;;;;;5.95;2.13;;;;;;;;;;5089488;28;20031;-73
2022/06/22 12:15:22;;;;;;;;;;;;;;;;;;5090150;28;20032;-73
2022/06/22 12:17:59;;;;;;;11.55;2.53;;;;;;;;;;5089169;28;19922;-75
2022/06/22 12:20:46;;;;;;;6.60;2.30;;;;;;;;;;5089104;28;20031;-77
2022/06/22 12:23:36;;;;;;;9.85;2.33;;;;;;;;;;5089132;28;20514;-73
2022/06/22 12:26:27;;;;;;;4.22;2.00;;;;;;;;;;5089440;28;20048;-76
2022/06/22 12:29:11;;;;;;;4.90;2.22;;;;;;;;;;5089371;28;20058;-74
2022/06/22 12:31:47;;;;;;;6.60;2.10;;;;;;;;;;5089536;28;20059;-73
2022/06/22 12:34:12;;;;;;;6.20;2.33;;;;;;;;;;5089381;28;20020;-74
2022/06/22 12:36:42;;;;;;;7.03;2.30;;;;;;;;;;5088985;28;20028;-74
2022/06/22 12:39:10;;;;;;;3.60;2.10;;;;;;;;;;5091634;28;20045;-75
2022/06/22 12:42:02;;;;;;;7.10;2.03;;;;;;;;;;5093474;28;20059;-81
2022/06/22 12:44:58;;;;;;;10.05;2.30;;;;;;;;;;5041406;28;20044;-75
2022/06/22 12:47:42;;;;;;;6.93;2.20;;;;;;;;;;5093020;28;20026;-72
2022/06/22 12:50:19;;;;;;;7.28;2.72;;;;;;;;;;5093268;28;20044;-77
2022/06/22 12:52:49;;;;;;;5.60;2.15;;;;;;;;;;5093047;28;20047;-74
2022/06/22 12:55:20;;;;;;;6.70;2.58;;;;;;;;;;5092992;28;20052;-76
2022/06/22 12:57:54;;;;;;;7.57;2.10;;;;;;;;;;5092743;28;20035;-74
2022/06/22 13:00:22;;;;;;;7.38;1.95;;;;;;;;;;5092862;28;20027;-77
2022/06/22 13:02:49;;;;;;;8.20;2.28;;;;;;;;;;5093004;28;20028;-76
2022/06/22 13:05:24;;;;;;;12.13;2.38;;;;;;;;;;5092808;28;20099;-74
2022/06/22 13:07:59;;;;;;;7.70;2.40;;;;;;;;;;5091372;28;20032;-75
2022/06/22 13:10:28;;;;;;;6.68;2.38;;;;;;;;;;5093066;28;20020;-73
2022/06/22 13:13:22;;;;;;;6.72;2.40;;;;;;;;;;5092751;28;20028;-80
2022/06/22 13:16:11;;;;;;;9.15;2.40;;;;;;;;;;5092190;28;20403;-81
2022/06/22 13:18:59;;;;;;;15.90;3.40;;;;;;;;;;5092248;28;20066;-77
2022/06/22 13:22:06;;;;;;;9.25;2.40;;;;;;;;;;5092227;28;20552;-74
2022/06/22 13:24:38;;;;;;;7.65;2.35;;;;;;;;;;5081226;28;20040;-74
2022/06/22 13:27:15;;;;;;;10.73;2.05;;;;;;;;;;5092505;28;20039;-75
2022/06/22 13:29:50;;;;;;;6.65;2.30;;;;;;;;;;5092109;28;20031;-73
2022/06/22 13:32:18;;;;;;;5.40;2.45;;;;;;;;;;5092315;28;20035;-74
2022/06/22 13:34:50;;;;;;;7.03;2.50;;;;;;;;;;5091843;28;20023;-74
2022/06/22 13:37:45;;;;;;;6.75;2.15;;;;;;;;;;5092043;28;20451;-72
2022/06/22 13:40:29;;;;;;;7.15;2.30;;;;;;;;;;5092018;28;20020;-73
2022/06/22 13:43:12;;;;;;;6.50;2.25;;;;;;;;;;5092218;28;20025;-75
2022/06/22 13:45:46;;;;;;;4.60;2.10;;;;;;;;;;5091919;28;20481;-77
2022/06/22 13:48:33;;;;;;;8.43;2.65;;;;;;;;;;5091595;28;20101;-75
2022/06/22 13:51:29;;;;;;;9.55;2.47;;;;;;;;;;5091643;28;20039;-74
2022/06/22 13:54:16;;;;;;;6.05;2.10;;;;;;;;;;5049414;28;20047;-76
2022/06/22 13:57:03;;;;;;;8.43;2.15;;;;;;;;;;5091596;28;20119;-73
2022/06/22 13:59:44;;;;;;;6.90;2.10;;;;;;;;;;5091433;28;20024;-73
2022/06/22 14:02:15;;;;;;;6.15;2.30;;;;;;;;;;5091730;28;20044;-74
2022/06/22 14:04:54;;;;;;;9.05;2.55;;;;;;;;;;5091620;28;20094;-75
2022/06/22 14:07:29;;;;;;;6.95;2.45;;;;;;;;;;5072950;28;20043;-77
2022/06/22 14:10:05;;;;;;;7.05;2.40;;;;;;;;;;5091200;28;20032;-72
2022/06/22 14:12:50;;;;;;;6.03;2.10;;;;;;;;;;5091511;28;20105;-74
2022/06/22 14:15:31;;;;;;;6.40;1.92;;;;;;;;;;5091194;28;20039;-74
2022/06/22 14:18:09;;;;;;;9.90;3.20;;;;;;;;;;5091187;28;20030;-74
2022/06/22 14:20:43;;;;;;;10.20;2.45;;;;;;;;;;5091019;28;20051;-73
2022/06/22 14:23:15;;;;;;;7.65;2.20;;;;;;;;;;5091433;28;20504;-73
2022/06/22 14:25:58;;;;;;;7.35;2.40;;;;;;;;;;5091098;28;20107;-73
2022/06/22 14:28:46;;;;;;;9.15;2.65;;;;;;;;;;5090945;28;20024;-78
2022/06/22 14:31:16;;;;;;;8.93;2.42;;;;;;;;;;5073049;28;20513;-79
2022/06/22 14:33:58;;;;;;;7.68;2.20;;;;;;;;;;5090793;28;20479;-77
2022/06/22 14:36:29;;;;;;;8.75;2.33;;;;;;;;;;5072536;28;20038;-81
2022/06/22 14:39:16;;;;;;;7.90;2.05;;;;;;;;;;5090800;28;20031;-81
2022/06/22 14:41:52;;;;;;;7.70;2.25;;;;;;;;;;5091272;28;20059;-80
2022/06/22 14:44:38;;;;;;;9.60;2.17;;;;;;;;;;5090773;28;20462;-80
2022/06/22 14:47:12;;;;;;;5.97;2.05;;;;;;;;;;5090996;28;20024;-80
2022/06/22 14:49:59;;;;;;;8.43;2.40;;;;;;;;;;5090104;28;20131;-80
2022/06/22 14:52:37;;;;;;;7.65;2.40;;;;;;;;;;5090499;28;20032;-80
2022/06/22 14:55:34;;;;;;;7.63;2.30;;;;;;;;;;5072264;28;20028;-80
2022/06/22 14:58:07;;;;;;;7.80;2.35;;;;;;;;;;5090536;28;20028;-81
2022/06/22 15:00:57;;;;;;;4.40;2.00;;;;;;;;;;5089715;28;20028;-81
2022/06/22 15:03:36;;;;;;;6.82;2.28;;;;;;;;;;5090711;28;20116;-81
2022/06/22 15:06:21;;;;;;;5.68;2.40;;;;;;;;;;5089950;28;20040;-81
2022/06/22 15:09:02;;;;;;;7.25;2.45;;;;;;;;;;5090080;28;20522;-80
2022/06/22 15:14:45;;;;;;;8.80;2.50;;;;;;;;;;5090064;28;20046;-81
2022/06/22 15:17:33;;;;;;;10.95;2.47;;;;;;;;;;5072192;28;20028;-80
2022/06/22 15:20:18;;;;;;;6.10;2.40;;;;;;;;;;5074798;28;20024;-81
2022/06/22 15:22:54;;;;;;;8.05;2.40;;;;;;;;;;5090447;28;20116;-81
2022/06/22 15:25:38;;;;;;;8.23;2.30;;;;;;;;;;5089956;28;20016;-80
2022/06/22 15:28:13;;;;;;;5.03;2.30;;;;;;;;;;5071716;28;20394;-80
2022/06/22 15:30:47;;;;;;;10.15;2.35;;;;;;;;;;5089582;28;20039;-78
2022/06/22 15:33:23;;;;;;;6.85;2.22;;;;;;;;;;5090141;28;20123;-76
2022/06/22 15:36:09;;;;;;;8.07;2.38;;;;;;;;;;5089641;28;20024;-77
2022/06/22 15:39:04;;;;;;;6.63;2.17;;;;;;;;;;5089915;28;20035;-74
2022/06/22 15:41:54;;;;;;;10.25;2.63;;;;;;;;;;5071577;28;20028;-76
2022/06/22 15:44:26;;;;;;;5.20;2.10;;;;;;;;;;5071646;28;20066;-75
2022/06/22 15:46:54;;;;;;;8.98;2.47;;;;;;;;;;5089594;28;20024;-79
2022/06/22 15:49:29;;;;;;;8.23;2.20;;;;;;;;;;5089407;28;20070;-77
2022/06/22 15:52:06;;;;;;;6.97;2.10;;;;;;;;;;5089223;28;20037;-76
2022/06/22 15:54:38;;;;;;;6.47;2.30;;;;;;;;;;5089740;28;20388;-79
2022/06/22 15:57:38;;;;;;;6.93;2.28;;;;;;;;;;5089621;28;20487;-76
2022/06/22 16:00:04;;;;;;;9.07;2.47;;;;;;;;;;5084116;28;20040;-77
2022/06/22 16:02:37;;;;;;;6.68;2.20;;;;;;;;;;5089727;28;20028;-80
2022/06/22 16:05:30;;;;;;;6.22;2.42;;;;;;;;;;5071103;28;20089;-76
2022/06/22 16:08:10;;;;;;;10.38;2.33;;;;;;;;;;5089380;28;20027;-79
2022/06/22 16:10:39;;;;;;;;;;;;;;;;;;5089956;28;20024;-80
2022/06/22 16:13:27;;;;;;;6.00;2.15;;;;;;;;;;5092409;28;19912;-80